sensor_id;sensor_type;location;lat;lon;timestamp;pressure;altitude;pressure_sealevel;temperature;humidity
83140;BME280;73027;54.208;19.128;2024-02-16T00:00:43;101935.31;;;10.81;81.45
83140;BME280;73027;54.208;19.128;2024-02-16T00:03:11;101933.47;;;10.87;81.37
83140;BME280;73027;54.208;19.128;2024-02-16T00:05:37;101935.94;;;10.93;81.22
83140;BME280;73027;54.208;19.128;2024-02-16T00:08:02;101936.78;;;10.95;81.61
83140;BME280;73027;54.208;19.128;2024-02-16T00:10:28;101936.72;;;10.98;81.69
83140;BME280;73027;54.208;19.128;2024-02-16T00:12:54;101932.28;;;11.07;81.31
83140;BME280;73027;54.208;19.128;2024-02-16T00:15:19;101934.88;;;11.05;80.89
83140;BME280;73027;54.208;19.128;2024-02-16T00:17:45;101939.03;;;11.12;81.09
83140;BME280;73027;54.208;19.128;2024-02-16T00:20:11;101940.75;;;11.13;81.30
83140;BME280;73027;54.208;19.128;2024-02-16T00:22:38;101932.16;;;11.13;80.83
83140;BME280;73027;54.208;19.128;2024-02-16T00:25:03;101930.44;;;11.15;80.81
83140;BME280;73027;54.208;19.128;2024-02-16T00:27:29;101935.59;;;11.15;80.92
83140;BME280;73027;54.208;19.128;2024-02-16T00:29:55;101936.44;;;11.14;80.92
83140;BME280;73027;54.208;19.128;2024-02-16T00:32:21;101937.28;;;11.16;80.99
83140;BME280;73027;54.208;19.128;2024-02-16T00:34:49;101944.19;;;11.15;80.51
83140;BME280;73027;54.208;19.128;2024-02-16T00:37:17;101941.88;;;11.00;80.65
83140;BME280;73027;54.208;19.128;2024-02-16T00:39:42;101940.09;;;11.02;81.42
83140;BME280;73027;54.208;19.128;2024-02-16T00:42:08;101932.28;;;11.07;81.15
83140;BME280;73027;54.208;19.128;2024-02-16T00:44:34;101939.09;;;11.11;81.42
83140;BME280;73027;54.208;19.128;2024-02-16T00:47:00;101933.88;;;11.14;81.02
83140;BME280;73027;54.208;19.128;2024-02-16T00:49:25;101926.97;;;11.16;81.25
83140;BME280;73027;54.208;19.128;2024-02-16T00:51:51;101934.72;;;11.14;81.26
83140;BME280;73027;54.208;19.128;2024-02-16T00:54:17;101944.09;;;11.20;80.70
83140;BME280;73027;54.208;19.128;2024-02-16T00:56:42;101934.72;;;11.14;80.87
83140;BME280;73027;54.208;19.128;2024-02-16T00:59:08;101934.78;;;11.11;80.73
83140;BME280;73027;54.208;19.128;2024-02-16T01:01:35;101931.31;;;11.12;81.08
83140;BME280;73027;54.208;19.128;2024-02-16T01:04:01;101926.28;;;11.06;80.80
83140;BME280;73027;54.208;19.128;2024-02-16T01:06:28;101942.59;;;11.08;81.21
83140;BME280;73027;54.208;19.128;2024-02-16T01:08:53;101938.25;;;11.10;81.29
83140;BME280;73027;54.208;19.128;2024-02-16T01:11:20;101929.72;;;11.07;80.95
83140;BME280;73027;54.208;19.128;2024-02-16T01:13:46;101930.56;;;11.06;81.05
83140;BME280;73027;54.208;19.128;2024-02-16T01:16:11;101934.88;;;11.05;81.52
83140;BME280;73027;54.208;19.128;2024-02-16T01:18:37;101928.84;;;11.06;81.16
83140;BME280;73027;54.208;19.128;2024-02-16T01:21:03;101942.53;;;11.10;81.58
83140;BME280;73027;54.208;19.128;2024-02-16T01:23:29;101928.69;;;11.15;81.54
83140;BME280;73027;54.208;19.128;2024-02-16T01:25:54;101926.84;;;11.22;81.34
83140;BME280;73027;54.208;19.128;2024-02-16T01:28:20;101926.66;;;11.32;81.33
83140;BME280;73027;54.208;19.128;2024-02-16T01:30:45;101923.97;;;11.38;80.59
83140;BME280;73027;54.208;19.128;2024-02-16T01:33:10;101919.69;;;11.39;80.58
83140;BME280;73027;54.208;19.128;2024-02-16T01:35:36;101910.94;;;11.46;80.44
83140;BME280;73027;54.208;19.128;2024-02-16T01:38:01;101910.03;;;11.47;80.30
83140;BME280;73027;54.208;19.128;2024-02-16T01:40:27;101911.78;;;11.46;79.65
83140;BME280;73027;54.208;19.128;2024-02-16T01:42:53;101905.72;;;11.47;79.90
83140;BME280;73027;54.208;19.128;2024-02-16T01:45:20;101917.75;;;11.48;79.51
83140;BME280;73027;54.208;19.128;2024-02-16T01:47:47;101920.47;;;11.42;79.54
83140;BME280;73027;54.208;19.128;2024-02-16T01:50:15;101916.28;;;11.35;79.41
83140;BME280;73027;54.208;19.128;2024-02-16T01:52:44;101913.81;;;11.29;79.61
83140;BME280;73027;54.208;19.128;2024-02-16T01:55:10;101908.75;;;11.25;79.36
83140;BME280;73027;54.208;19.128;2024-02-16T01:57:40;101903.44;;;11.32;79.96
83140;BME280;73027;54.208;19.128;2024-02-16T02:00:07;101909.44;;;11.34;79.40
83140;BME280;73027;54.208;19.128;2024-02-16T02:02:36;101898.25;;;11.34;79.28
83140;BME280;73027;54.208;19.128;2024-02-16T02:05:03;101897.53;;;11.27;79.10
83140;BME280;73027;54.208;19.128;2024-02-16T02:07:29;101903.56;;;11.26;79.65
83140;BME280;73027;54.208;19.128;2024-02-16T02:09:54;101902.78;;;11.23;79.75
83140;BME280;73027;54.208;19.128;2024-02-16T02:12:20;101903.72;;;11.19;79.57
83140;BME280;73027;54.208;19.128;2024-02-16T02:14:46;101902.78;;;11.23;79.85
83140;BME280;73027;54.208;19.128;2024-02-16T02:17:12;101895.75;;;11.29;79.74
83140;BME280;73027;54.208;19.128;2024-02-16T02:19:38;101901.63;;;11.37;80.03
83140;BME280;73027;54.208;19.128;2024-02-16T02:22:04;101898.13;;;11.40;79.45
83140;BME280;73027;54.208;19.128;2024-02-16T02:24:30;101899.84;;;11.42;79.47
83140;BME280;73027;54.208;19.128;2024-02-16T02:26:55;101881.06;;;11.34;79.48
83140;BME280;73027;54.208;19.128;2024-02-16T02:29:22;101891.25;;;11.40;79.48
83140;BME280;73027;54.208;19.128;2024-02-16T02:31:49;101888.66;;;11.42;78.85
83140;BME280;73027;54.208;19.128;2024-02-16T02:34:14;101882.78;;;11.34;79.01
83140;BME280;73027;54.208;19.128;2024-02-16T02:36:40;101876.00;;;11.30;79.41
83140;BME280;73027;54.208;19.128;2024-02-16T02:39:07;101876.13;;;11.22;79.03
83140;BME280;73027;54.208;19.128;2024-02-16T02:41:32;101874.34;;;11.24;79.28
83140;BME280;73027;54.208;19.128;2024-02-16T02:43:58;101869.19;;;11.24;79.34
83140;BME280;73027;54.208;19.128;2024-02-16T02:46:23;101878.50;;;11.33;79.93
83140;BME280;73027;54.208;19.128;2024-02-16T02:48:50;101880.00;;;11.43;79.48
83140;BME280;73027;54.208;19.128;2024-02-16T02:51:16;101884.38;;;11.39;78.81
83140;BME280;73027;54.208;19.128;2024-02-16T02:53:42;101882.75;;;11.35;79.17
83140;BME280;73027;54.208;19.128;2024-02-16T02:56:10;101869.97;;;11.29;79.20
83140;BME280;73027;54.208;19.128;2024-02-16T02:58:35;101881.09;;;11.33;79.10
83140;BME280;73027;54.208;19.128;2024-02-16T03:01:05;101877.63;;;11.34;78.91
83140;BME280;73027;54.208;19.128;2024-02-16T03:03:32;101870.69;;;11.37;79.47
83140;BME280;73027;54.208;19.128;2024-02-16T03:05:59;101867.16;;;11.41;79.01
83140;BME280;73027;54.208;19.128;2024-02-16T03:08:24;101873.88;;;11.50;78.74
83140;BME280;73027;54.208;19.128;2024-02-16T03:10:50;101888.41;;;11.54;78.78
83140;BME280;73027;54.208;19.128;2024-02-16T03:13:15;101880.78;;;11.48;78.51
83140;BME280;73027;54.208;19.128;2024-02-16T03:15:43;101880.06;;;11.41;78.48
83140;BME280;73027;54.208;19.128;2024-02-16T03:18:09;101878.41;;;11.37;78.51
83140;BME280;73027;54.208;19.128;2024-02-16T03:20:35;101874.13;;;11.38;78.83
83140;BME280;73027;54.208;19.128;2024-02-16T03:23:01;101874.19;;;11.35;78.71
83140;BME280;73027;54.208;19.128;2024-02-16T03:25:26;101875.13;;;11.31;78.54
83140;BME280;73027;54.208;19.128;2024-02-16T03:27:52;101869.13;;;11.29;78.50
83140;BME280;73027;54.208;19.128;2024-02-16T03:30:20;101875.13;;;11.31;78.58
83140;BME280;73027;54.208;19.128;2024-02-16T03:32:49;101870.94;;;11.24;78.37
83140;BME280;73027;54.208;19.128;2024-02-16T03:35:16;101867.69;;;11.14;79.03
83140;BME280;73027;54.208;19.128;2024-02-16T03:37:41;101860.81;;;11.13;78.86
83140;BME280;73027;54.208;19.128;2024-02-16T03:40:07;101868.56;;;11.13;79.33
83140;BME280;73027;54.208;19.128;2024-02-16T03:42:35;101871.19;;;11.10;79.19
83140;BME280;73027;54.208;19.128;2024-02-16T03:45:01;101865.22;;;11.08;79.29
83140;BME280;73027;54.208;19.128;2024-02-16T03:47:26;101866.25;;;10.98;79.16
83140;BME280;73027;54.208;19.128;2024-02-16T03:49:51;101867.06;;;11.02;79.34
83140;BME280;73027;54.208;19.128;2024-02-16T03:52:17;101867.91;;;11.02;79.42
83140;BME280;73027;54.208;19.128;2024-02-16T03:54:42;101850.84;;;10.95;79.45
83140;BME280;73027;54.208;19.128;2024-02-16T03:57:09;101872.19;;;11.03;79.51
83140;BME280;73027;54.208;19.128;2024-02-16T03:59:37;101873.78;;;11.10;80.05
83140;BME280;73027;54.208;19.128;2024-02-16T04:02:02;101875.50;;;11.11;79.88
83140;BME280;73027;54.208;19.128;2024-02-16T04:04:28;101878.13;;;11.08;79.36
83140;BME280;73027;54.208;19.128;2024-02-16T04:06:53;101873.75;;;11.12;79.32
83140;BME280;73027;54.208;19.128;2024-02-16T04:09:19;101881.44;;;11.13;79.72
83140;BME280;73027;54.208;19.128;2024-02-16T04:11:47;101872.84;;;11.14;79.61
83140;BME280;73027;54.208;19.128;2024-02-16T04:14:13;101879.66;;;11.17;79.31
83140;BME280;73027;54.208;19.128;2024-02-16T04:16:38;101879.72;;;11.14;79.12
83140;BME280;73027;54.208;19.128;2024-02-16T04:19:03;101881.56;;;11.07;79.39
83140;BME280;73027;54.208;19.128;2024-02-16T04:21:29;101879.00;;;11.06;79.32
83140;BME280;73027;54.208;19.128;2024-02-16T04:23:54;101878.13;;;11.08;79.79
83140;BME280;73027;54.208;19.128;2024-02-16T04:26:20;101876.34;;;11.10;79.59
83140;BME280;73027;54.208;19.128;2024-02-16T04:28:45;101877.28;;;11.08;79.57
83140;BME280;73027;54.208;19.128;2024-02-16T04:31:11;101872.97;;;11.08;79.27
83140;BME280;73027;54.208;19.128;2024-02-16T04:33:36;101880.72;;;11.07;79.55
83140;BME280;73027;54.208;19.128;2024-02-16T04:36:05;101872.91;;;11.11;79.75
83140;BME280;73027;54.208;19.128;2024-02-16T04:38:32;101874.63;;;11.11;79.14
83140;BME280;73027;54.208;19.128;2024-02-16T04:40:58;101874.59;;;11.12;79.49
83140;BME280;73027;54.208;19.128;2024-02-16T04:43:23;101872.84;;;11.13;79.36
83140;BME280;73027;54.208;19.128;2024-02-16T04:45:49;101866.84;;;11.14;79.20
83140;BME280;73027;54.208;19.128;2024-02-16T04:48:14;101859.16;;;11.11;79.21
83140;BME280;73027;54.208;19.128;2024-02-16T04:50:40;101870.28;;;11.13;78.72
83140;BME280;73027;54.208;19.128;2024-02-16T04:53:05;101866.91;;;11.09;78.66
83140;BME280;73027;54.208;19.128;2024-02-16T04:55:31;101866.97;;;11.08;78.68
83140;BME280;73027;54.208;19.128;2024-02-16T04:57:56;101866.97;;;11.08;79.01
83140;BME280;73027;54.208;19.128;2024-02-16T05:00:22;101868.59;;;11.12;78.71
83140;BME280;73027;54.208;19.128;2024-02-16T05:02:48;101859.94;;;11.14;78.93
83140;BME280;73027;54.208;19.128;2024-02-16T05:05:13;101863.41;;;11.13;78.84
83140;BME280;73027;54.208;19.128;2024-02-16T05:07:42;101854.84;;;11.11;78.62
83140;BME280;73027;54.208;19.128;2024-02-16T05:10:10;101867.69;;;11.13;78.79
83140;BME280;73027;54.208;19.128;2024-02-16T05:12:36;101865.22;;;11.08;78.89
83140;BME280;73027;54.208;19.128;2024-02-16T05:15:02;101862.66;;;11.08;78.41
83140;BME280;73027;54.208;19.128;2024-02-16T05:17:28;101869.50;;;11.09;78.27
83140;BME280;73027;54.208;19.128;2024-02-16T05:19:54;101855.06;;;10.99;78.45
83140;BME280;73027;54.208;19.128;2024-02-16T05:22:19;101864.53;;;10.98;78.21
83140;BME280;73027;54.208;19.128;2024-02-16T05:24:47;101862.81;;;10.97;78.48
83140;BME280;73027;54.208;19.128;2024-02-16T05:27:13;101872.38;;;10.92;78.69
83140;BME280;73027;54.208;19.128;2024-02-16T05:29:40;101859.63;;;10.85;78.63
83140;BME280;73027;54.208;19.128;2024-02-16T05:32:06;101863.22;;;10.76;78.45
83140;BME280;73027;54.208;19.128;2024-02-16T05:34:31;101867.53;;;10.74;78.40
83140;BME280;73027;54.208;19.128;2024-02-16T05:37:06;101853.13;;;10.64;78.05
83140;BME280;73027;54.208;19.128;2024-02-16T05:39:33;101864.22;;;10.68;78.61
83140;BME280;73027;54.208;19.128;2024-02-16T05:42:01;101861.56;;;10.71;78.51
83140;BME280;73027;54.208;19.128;2024-02-16T05:44:27;101856.34;;;10.75;78.61
83140;BME280;73027;54.208;19.128;2024-02-16T05:46:52;101858.06;;;10.75;78.36
83140;BME280;73027;54.208;19.128;2024-02-16T05:49:17;101855.50;;;10.75;78.48
83140;BME280;73027;54.208;19.128;2024-02-16T05:51:43;101854.63;;;10.77;77.97
83140;BME280;73027;54.208;19.128;2024-02-16T05:54:26;101859.72;;;10.79;77.88
83140;BME280;73027;54.208;19.128;2024-02-16T05:56:52;101866.53;;;10.81;78.10
83140;BME280;73027;54.208;19.128;2024-02-16T05:59:17;101864.88;;;10.79;77.55
83140;BME280;73027;54.208;19.128;2024-02-16T06:01:43;101858.91;;;10.77;77.94
83140;BME280;73027;54.208;19.128;2024-02-16T06:04:08;101872.59;;;10.80;77.81
83140;BME280;73027;54.208;19.128;2024-02-16T06:06:35;101868.25;;;10.84;77.41
83140;BME280;73027;54.208;19.128;2024-02-16T06:09:01;101864.78;;;10.85;77.69
83140;BME280;73027;54.208;19.128;2024-02-16T06:11:26;101872.38;;;10.92;77.45
83140;BME280;73027;54.208;19.128;2024-02-16T06:13:52;101869.81;;;10.91;77.10
83140;BME280;73027;54.208;19.128;2024-02-16T06:16:17;101880.19;;;10.88;76.96
83140;BME280;73027;54.208;19.128;2024-02-16T06:18:42;101884.44;;;10.89;77.02
83140;BME280;73027;54.208;19.128;2024-02-16T06:21:08;101888.72;;;10.91;77.15
83140;BME280;73027;54.208;19.128;2024-02-16T06:23:33;101897.25;;;10.95;76.87
83140;BME280;73027;54.208;19.128;2024-02-16T06:25:59;101896.34;;;10.97;76.72
83140;BME280;73027;54.208;19.128;2024-02-16T06:28:24;101896.28;;;11.00;76.75
83140;BME280;73027;54.208;19.128;2024-02-16T06:30:50;101898.00;;;11.02;76.34
83140;BME280;73027;54.208;19.128;2024-02-16T06:33:15;101892.88;;;11.00;75.97
83140;BME280;73027;54.208;19.128;2024-02-16T06:35:40;101888.53;;;11.04;76.28
83140;BME280;73027;54.208;19.128;2024-02-16T06:38:06;101881.66;;;11.03;75.89
83140;BME280;73027;54.208;19.128;2024-02-16T06:40:31;101891.75;;;11.15;76.06
83140;BME280;73027;54.208;19.128;2024-02-16T06:42:57;101896.84;;;11.18;75.80
83140;BME280;73027;54.208;19.128;2024-02-16T06:45:22;101898.47;;;11.23;75.15
83140;BME280;73027;54.208;19.128;2024-02-16T06:47:48;101891.53;;;11.25;75.64
83140;BME280;73027;54.208;19.128;2024-02-16T06:50:13;101883.81;;;11.25;75.23
83140;BME280;73027;54.208;19.128;2024-02-16T06:52:39;101888.97;;;11.24;74.75
83140;BME280;73027;54.208;19.128;2024-02-16T06:55:04;101886.38;;;11.27;75.07
83140;BME280;73027;54.208;19.128;2024-02-16T06:57:30;101877.78;;;11.26;75.36
83140;BME280;73027;54.208;19.128;2024-02-16T06:59:56;101885.38;;;11.32;75.37
83140;BME280;73027;54.208;19.128;2024-02-16T07:02:23;101881.09;;;11.33;75.26
83140;BME280;73027;54.208;19.128;2024-02-16T07:04:48;101869.88;;;11.34;75.12
83140;BME280;73027;54.208;19.128;2024-02-16T07:07:13;101874.97;;;11.38;75.03
83140;BME280;73027;54.208;19.128;2024-02-16T07:09:39;101879.13;;;11.45;74.40
83140;BME280;73027;54.208;19.128;2024-02-16T07:12:05;101877.41;;;11.44;74.53
83140;BME280;73027;54.208;19.128;2024-02-16T07:14:32;101879.00;;;11.52;74.50
83140;BME280;73027;54.208;19.128;2024-02-16T07:16:57;101879.75;;;11.57;74.07
83140;BME280;73027;54.208;19.128;2024-02-16T07:19:23;101879.59;;;11.66;74.10
83140;BME280;73027;54.208;19.128;2024-02-16T07:21:51;101850.13;;;11.76;74.05
83140;BME280;73027;54.208;19.128;2024-02-16T07:24:17;101881.53;;;11.96;73.29
83140;BME280;73027;54.208;19.128;2024-02-16T07:26:43;101879.38;;;12.16;73.31
83140;BME280;73027;54.208;19.128;2024-02-16T07:29:08;101897.78;;;12.39;72.16
83140;BME280;73027;54.208;19.128;2024-02-16T07:31:35;101896.59;;;12.53;71.68
83140;BME280;73027;54.208;19.128;2024-02-16T07:34:01;101896.50;;;12.57;71.02
83140;BME280;73027;54.208;19.128;2024-02-16T07:36:27;101901.53;;;12.97;70.75
83140;BME280;73027;54.208;19.128;2024-02-16T07:38:53;101887.84;;;13.26;69.80
83140;BME280;73027;54.208;19.128;2024-02-16T07:41:18;101896.38;;;13.60;69.35
83140;BME280;73027;54.208;19.128;2024-02-16T07:43:43;101894.28;;;13.74;67.67
83140;BME280;73027;54.208;19.128;2024-02-16T07:46:09;101893.66;;;13.94;66.97
83140;BME280;73027;54.208;19.128;2024-02-16T07:48:34;101891.56;;;14.07;67.33
83140;BME280;73027;54.208;19.128;2024-02-16T07:51:00;101898.97;;;14.19;65.88
83140;BME280;73027;54.208;19.128;2024-02-16T07:53:28;101905.88;;;14.18;65.79
83140;BME280;73027;54.208;19.128;2024-02-16T07:55:53;101902.38;;;14.21;65.50
83140;BME280;73027;54.208;19.128;2024-02-16T07:58:19;101912.03;;;14.16;64.95
83140;BME280;73027;54.208;19.128;2024-02-16T08:00:44;101910.38;;;13.84;65.63
83140;BME280;73027;54.208;19.128;2024-02-16T08:03:10;101911.97;;;13.59;65.69
83140;BME280;73027;54.208;19.128;2024-02-16T08:05:35;101898.06;;;13.32;66.79
83140;BME280;73027;54.208;19.128;2024-02-16T08:08:00;101900.22;;;13.15;67.11
83140;BME280;73027;54.208;19.128;2024-02-16T08:10:26;101887.41;;;13.10;67.89
83140;BME280;73027;54.208;19.128;2024-02-16T08:12:51;101889.19;;;13.07;67.72
83140;BME280;73027;54.208;19.128;2024-02-16T08:15:18;101889.44;;;12.98;67.98
83140;BME280;73027;54.208;19.128;2024-02-16T08:17:48;101890.22;;;13.01;68.36
83140;BME280;73027;54.208;19.128;2024-02-16T08:20:14;101885.56;;;13.15;67.93
83140;BME280;73027;54.208;19.128;2024-02-16T08:22:40;101894.06;;;13.20;67.62
83140;BME280;73027;54.208;19.128;2024-02-16T08:25:06;101869.34;;;13.09;67.63
83140;BME280;73027;54.208;19.128;2024-02-16T08:27:32;101875.75;;;13.28;67.78
83140;BME280;73027;54.208;19.128;2024-02-16T08:29:57;101864.44;;;13.30;67.18
83140;BME280;73027;54.208;19.128;2024-02-16T08:32:23;101867.81;;;13.32;67.13
83140;BME280;73027;54.208;19.128;2024-02-16T08:34:48;101864.91;;;13.45;67.17
83140;BME280;73027;54.208;19.128;2024-02-16T08:37:15;101856.34;;;13.72;66.46
83140;BME280;73027;54.208;19.128;2024-02-16T08:39:41;101859.75;;;13.74;66.05
83140;BME280;73027;54.208;19.128;2024-02-16T08:42:06;101861.22;;;14.10;65.75
83140;BME280;73027;54.208;19.128;2024-02-16T08:44:33;101862.78;;;14.70;64.58
83140;BME280;73027;54.208;19.128;2024-02-16T08:46:59;101867.75;;;15.50;63.11
83140;BME280;73027;54.208;19.128;2024-02-16T08:49:25;101854.56;;;16.01;60.70
83140;BME280;73027;54.208;19.128;2024-02-16T08:51:50;101861.63;;;16.19;60.29
83140;BME280;73027;54.208;19.128;2024-02-16T08:54:15;101860.41;;;16.72;58.57
83140;BME280;73027;54.208;19.128;2024-02-16T08:56:47;101864.88;;;17.08;56.37
83140;BME280;73027;54.208;19.128;2024-02-16T08:59:15;101859.00;;;17.24;55.05
83140;BME280;73027;54.208;19.128;2024-02-16T09:01:42;101859.84;;;17.24;55.34
83140;BME280;73027;54.208;19.128;2024-02-16T09:04:08;101842.78;;;17.56;55.43
83140;BME280;73027;54.208;19.128;2024-02-16T09:06:33;101863.72;;;18.11;54.19
83140;BME280;73027;54.208;19.128;2024-02-16T09:09:02;101865.94;;;18.18;51.40
83140;BME280;73027;54.208;19.128;2024-02-16T09:11:29;101852.00;;;18.00;51.92
83140;BME280;73027;54.208;19.128;2024-02-16T09:13:55;101857.22;;;18.00;51.11
83140;BME280;73027;54.208;19.128;2024-02-16T09:16:20;101856.53;;;17.97;50.43
83140;BME280;73027;54.208;19.128;2024-02-16T09:18:45;101832.53;;;17.90;51.85
83140;BME280;73027;54.208;19.128;2024-02-16T09:21:13;101842.81;;;18.29;51.49
83140;BME280;73027;54.208;19.128;2024-02-16T09:23:39;101848.28;;;18.42;50.91
83140;BME280;73027;54.208;19.128;2024-02-16T09:26:06;101850.53;;;18.31;50.20
83140;BME280;73027;54.208;19.128;2024-02-16T09:28:38;101850.00;;;18.24;50.66
83140;BME280;73027;54.208;19.128;2024-02-16T09:31:05;101848.69;;;18.51;50.27
83140;BME280;73027;54.208;19.128;2024-02-16T09:33:31;101838.75;;;18.92;49.14
83140;BME280;73027;54.208;19.128;2024-02-16T09:35:57;101858.44;;;18.99;49.30
83140;BME280;73027;54.208;19.128;2024-02-16T09:38:22;101842.06;;;19.46;48.77
83140;BME280;73027;54.208;19.128;2024-02-16T09:40:48;101833.94;;;19.50;47.45
83140;BME280;73027;54.208;19.128;2024-02-16T09:43:25;101846.19;;;19.00;47.26
83140;BME280;73027;54.208;19.128;2024-02-16T09:45:58;101836.75;;;18.29;48.96
83140;BME280;73027;54.208;19.128;2024-02-16T09:48:28;101821.03;;;18.47;50.20
83140;BME280;73027;54.208;19.128;2024-02-16T09:50:55;101842.91;;;19.29;48.91
83140;BME280;73027;54.208;19.128;2024-02-16T09:53:25;101832.31;;;19.65;47.23
83140;BME280;73027;54.208;19.128;2024-02-16T09:55:51;101827.88;;;19.97;46.44
83140;BME280;73027;54.208;19.128;2024-02-16T09:58:18;101834.84;;;20.28;45.91
83140;BME280;73027;54.208;19.128;2024-02-16T10:00:51;101827.13;;;20.56;44.66
83140;BME280;73027;54.208;19.128;2024-02-16T10:03:27;101833.78;;;20.76;44.45
83140;BME280;73027;54.208;19.128;2024-02-16T10:06:11;101820.03;;;20.58;43.88
83140;BME280;73027;54.208;19.128;2024-02-16T10:08:54;101823.91;;;20.95;44.53
83140;BME280;73027;54.208;19.128;2024-02-16T10:11:21;101805.31;;;21.14;43.05
83140;BME280;73027;54.208;19.128;2024-02-16T10:14:04;101830.47;;;21.45;41.87
83140;BME280;73027;54.208;19.128;2024-02-16T10:16:30;101818.22;;;21.45;42.40
83140;BME280;73027;54.208;19.128;2024-02-16T10:18:57;101810.03;;;21.64;41.69
83140;BME280;73027;54.208;19.128;2024-02-16T10:21:29;101811.34;;;21.98;41.61
83140;BME280;73027;54.208;19.128;2024-02-16T10:24:21;101813.44;;;22.71;39.35
83140;BME280;73027;54.208;19.128;2024-02-16T10:26:46;101803.25;;;22.79;39.83
83140;BME280;73027;54.208;19.128;2024-02-16T10:29:12;101797.06;;;22.81;38.68
83140;BME280;73027;54.208;19.128;2024-02-16T10:31:39;101800.19;;;22.21;39.86
83140;BME280;73027;54.208;19.128;2024-02-16T10:34:05;101807.81;;;21.99;40.95
83140;BME280;73027;54.208;19.128;2024-02-16T10:36:32;101822.28;;;22.44;40.13
83140;BME280;73027;54.208;19.128;2024-02-16T10:38:58;101805.28;;;22.89;39.75
83140;BME280;73027;54.208;19.128;2024-02-16T10:41:26;101800.41;;;23.20;38.76
83140;BME280;73027;54.208;19.128;2024-02-16T10:43:55;101788.19;;;23.32;38.65
83140;BME280;73027;54.208;19.128;2024-02-16T10:46:22;101793.78;;;23.64;37.69
83140;BME280;73027;54.208;19.128;2024-02-16T10:48:47;101784.00;;;23.66;36.66
83140;BME280;73027;54.208;19.128;2024-02-16T10:51:15;101792.94;;;24.11;36.69
83140;BME280;73027;54.208;19.128;2024-02-16T10:53:41;101789.22;;;24.37;36.17
83140;BME280;73027;54.208;19.128;2024-02-16T10:56:07;101780.69;;;24.80;35.31
83140;BME280;73027;54.208;19.128;2024-02-16T10:58:34;101785.78;;;24.94;34.96
83140;BME280;73027;54.208;19.128;2024-02-16T11:01:08;101783.44;;;24.56;34.67
83140;BME280;73027;54.208;19.128;2024-02-16T11:03:37;101776.94;;;24.14;35.79
83140;BME280;73027;54.208;19.128;2024-02-16T11:06:24;101767.69;;;24.32;36.17
83140;BME280;73027;54.208;19.128;2024-02-16T11:08:50;101772.94;;;24.89;35.27
83140;BME280;73027;54.208;19.128;2024-02-16T11:11:23;101767.75;;;24.65;34.87
83140;BME280;73027;54.208;19.128;2024-02-16T11:13:49;101780.13;;;24.87;34.16
83140;BME280;73027;54.208;19.128;2024-02-16T11:16:17;101758.75;;;24.68;33.82
83140;BME280;73027;54.208;19.128;2024-02-16T11:18:43;101765.19;;;24.53;34.02
83140;BME280;73027;54.208;19.128;2024-02-16T11:21:12;101747.09;;;24.37;34.64
83140;BME280;73027;54.208;19.128;2024-02-16T11:23:40;101749.88;;;24.36;34.00
83140;BME280;73027;54.208;19.128;2024-02-16T11:26:09;101745.44;;;24.36;34.42
83140;BME280;73027;54.208;19.128;2024-02-16T11:28:41;101743.53;;;24.49;34.62
83140;BME280;73027;54.208;19.128;2024-02-16T11:31:06;101730.78;;;25.00;33.91
83140;BME280;73027;54.208;19.128;2024-02-16T11:33:35;101740.22;;;25.25;32.91
83140;BME280;73027;54.208;19.128;2024-02-16T11:36:04;101737.00;;;25.65;32.61
83140;BME280;73027;54.208;19.128;2024-02-16T11:38:31;101737.34;;;25.28;32.32
83140;BME280;73027;54.208;19.128;2024-02-16T11:41:03;101728.44;;;25.40;32.88
83140;BME280;73027;54.208;19.128;2024-02-16T11:43:30;101732.16;;;25.81;31.63
83140;BME280;73027;54.208;19.128;2024-02-16T11:45:58;101722.09;;;26.06;31.21
83140;BME280;73027;54.208;19.128;2024-02-16T11:48:25;101721.38;;;25.30;31.89
83140;BME280;73027;54.208;19.128;2024-02-16T11:51:02;101730.16;;;24.63;32.01
83140;BME280;73027;54.208;19.128;2024-02-16T11:53:31;101711.59;;;23.73;34.90
83140;BME280;73027;54.208;19.128;2024-02-16T11:55:57;101700.00;;;23.76;35.12
83140;BME280;73027;54.208;19.128;2024-02-16T11:58:24;101699.63;;;23.09;35.75
83140;BME280;73027;54.208;19.128;2024-02-16T12:00:51;101693.03;;;22.15;38.46
83140;BME280;73027;54.208;19.128;2024-02-16T12:03:24;101714.28;;;21.58;39.24
83140;BME280;73027;54.208;19.128;2024-02-16T12:05:54;101720.53;;;21.29;38.92
83140;BME280;73027;54.208;19.128;2024-02-16T12:08:20;101691.38;;;20.36;42.59
83140;BME280;73027;54.208;19.128;2024-02-16T12:10:47;101698.72;;;19.70;43.83
83140;BME280;73027;54.208;19.128;2024-02-16T12:13:18;101709.25;;;20.28;42.32
83140;BME280;73027;54.208;19.128;2024-02-16T12:15:53;101687.09;;;20.77;42.48
83140;BME280;73027;54.208;19.128;2024-02-16T12:18:27;101693.72;;;21.11;42.00
83140;BME280;73027;54.208;19.128;2024-02-16T12:21:01;101701.53;;;21.66;39.56
83140;BME280;73027;54.208;19.128;2024-02-16T12:23:27;101672.09;;;23.25;37.68
83140;BME280;73027;54.208;19.128;2024-02-16T12:25:52;101687.63;;;24.35;34.66
83140;BME280;73027;54.208;19.128;2024-02-16T12:28:19;101668.84;;;25.06;34.31
83140;BME280;73027;54.208;19.128;2024-02-16T12:30:47;101675.78;;;26.44;31.27
83140;BME280;73027;54.208;19.128;2024-02-16T12:33:13;101684.72;;;27.52;28.65
83140;BME280;73027;54.208;19.128;2024-02-16T12:35:39;101676.63;;;28.11;28.28
83140;BME280;73027;54.208;19.128;2024-02-16T12:38:04;101686.41;;;28.47;26.83